createdAt,value
2023-04-03T00:37:17.918Z,-1.4
2023-04-03T00:47:30.307Z,-1.5
2023-04-03T01:18:07.815Z,-1.8
2023-04-03T01:23:14.138Z,-1.7
2023-04-03T01:28:20.481Z,-1.7
2023-04-03T01:33:26.845Z,-1.8
2023-04-03T01:43:39.712Z,-1.9
2023-04-03T01:53:52.273Z,-1.9
2023-04-03T02:04:04.761Z,-1.9
2023-04-03T02:14:17.850Z,-2
2023-04-03T02:19:24.244Z,-2
2023-04-03T02:24:30.940Z,-2.1
2023-04-03T02:29:37.508Z,-2.1
2023-04-03T02:34:43.334Z,-2.1
2023-04-03T02:39:49.994Z,-2.1
2023-04-03T02:44:56.431Z,-2.1
2023-04-03T02:55:09.900Z,-2
2023-04-03T03:00:16.308Z,-2
2023-04-03T03:05:22.717Z,-2
2023-04-03T03:10:29.292Z,-2.1
2023-04-03T03:15:35.845Z,-2
2023-04-03T03:20:42.536Z,-2.1
2023-04-03T03:25:49.172Z,-2.1
2023-04-03T03:30:55.644Z,-2.1
2023-04-03T03:36:03.327Z,-2.2
2023-04-03T03:41:08.864Z,-2.3
2023-04-03T03:46:15.371Z,-2.3
2023-04-03T03:51:21.227Z,-2.1
2023-04-03T03:56:27.909Z,-2.1
2023-04-03T04:01:34.447Z,-2.1
2023-04-03T04:06:40.882Z,-2.1
2023-04-03T04:11:47.492Z,-2.1
2023-04-03T04:16:54.169Z,-2.3
2023-04-03T04:22:00.715Z,-2.4
2023-04-03T04:27:07.209Z,-2.5
2023-04-03T04:32:13.874Z,-2.5
2023-04-03T04:37:20.385Z,-2.6
2023-04-03T04:42:27.082Z,-2.6
2023-04-03T04:47:33.625Z,-2.6
2023-04-03T04:52:40.230Z,-2.6
2023-04-03T04:57:46.850Z,-2.6
2023-04-03T05:02:53.258Z,-2.6
2023-04-03T05:07:59.287Z,-2.5
2023-04-03T05:13:05.825Z,-2.4
2023-04-03T05:18:12.375Z,-2.4
2023-04-03T05:23:18.969Z,-2.3
2023-04-03T05:28:25.575Z,-2.2
2023-04-03T05:33:32.137Z,-2.1
2023-04-03T05:38:38.566Z,-1.9
2023-04-03T05:43:45.129Z,-1.8
2023-04-03T05:48:51.698Z,-1.6
2023-04-03T05:53:58.278Z,-1.5
2023-04-03T05:59:04.979Z,-1.4
2023-04-03T06:04:11.416Z,-1.2
2023-04-03T06:09:18.004Z,-1
2023-04-03T06:14:24.665Z,-0.7
2023-04-03T06:19:31.194Z,-0.4
2023-04-03T06:29:43.648Z,0
2023-04-03T06:34:50.280Z,0.4
2023-04-03T06:39:56.906Z,0.6
2023-04-03T06:45:03.324Z,1.1
2023-04-03T06:50:10.046Z,1.2
2023-04-03T06:55:16.528Z,1
2023-04-03T07:00:23.011Z,1
2023-04-03T07:05:29.590Z,1.6
2023-04-03T07:10:36.296Z,2.6
2023-04-03T07:15:42.936Z,2
2023-04-03T07:20:49.461Z,2.2
2023-04-03T07:25:56.120Z,2.6
2023-04-03T07:31:01.944Z,2.7
2023-04-03T07:36:07.582Z,3.3
2023-04-03T07:41:14.342Z,3.2
2023-04-03T07:46:20.711Z,4.1
2023-04-03T07:51:27.533Z,4.7
2023-04-03T07:56:34.039Z,3.7
2023-04-03T08:01:40.605Z,4
2023-04-03T08:06:47.118Z,4.1
2023-04-03T08:11:53.733Z,3.8
2023-04-03T08:17:00.310Z,3.4
2023-04-03T08:22:06.897Z,2.8
2023-04-03T08:32:20.049Z,2.9
2023-04-03T08:37:26.445Z,3
2023-04-03T08:47:38.863Z,2.8
2023-04-03T08:52:45.530Z,4.4
2023-04-03T08:57:52.035Z,7.2
2023-04-03T09:02:58.777Z,6.7
2023-04-03T09:08:05.301Z,5.4
2023-04-03T09:13:11.942Z,5
2023-04-03T09:18:18.289Z,7.5
2023-04-03T09:23:25.014Z,9.2
2023-04-03T09:28:31.597Z,10.2
2023-04-03T09:33:38.148Z,7.2
2023-04-03T09:38:44.731Z,9.5
2023-04-03T09:43:51.304Z,9.3
2023-04-03T09:48:57.161Z,9.6
2023-04-03T09:54:03.748Z,9.5
2023-04-03T09:59:10.280Z,9.2
2023-04-03T10:04:16.818Z,8.3
2023-04-03T10:09:23.415Z,6
2023-04-03T10:14:30.008Z,5.8
2023-04-03T10:19:36.525Z,5.8
2023-04-03T10:24:43.136Z,5.7
2023-04-03T10:29:49.709Z,5.2
2023-04-03T10:34:56.259Z,6.6
2023-04-03T10:40:02.883Z,8.7
2023-04-03T10:45:09.457Z,6.9
2023-04-03T10:50:15.949Z,7
2023-04-03T10:55:21.680Z,6.6
2023-04-03T11:00:28.418Z,7.2
2023-04-03T11:05:34.941Z,5.5
2023-04-03T11:10:41.570Z,5.4
2023-04-03T11:15:48.153Z,8.1
2023-04-03T11:20:54.743Z,8.2
2023-04-03T11:26:01.277Z,7.8
2023-04-03T11:31:07.852Z,7.2
2023-04-03T11:36:14.367Z,5.6
2023-04-03T11:41:21.015Z,5.6
2023-04-03T11:46:27.428Z,6.1
2023-04-03T11:51:34.140Z,7
2023-04-03T11:56:40.529Z,7.3
2023-04-03T12:01:46.398Z,7.8
2023-04-03T12:11:59.610Z,6.3
2023-04-03T12:17:06.269Z,6.6
2023-04-03T12:22:12.857Z,6.6
2023-04-03T12:27:19.390Z,10.1
2023-04-03T12:32:25.958Z,10.8
2023-04-03T12:37:32.512Z,11
2023-04-03T12:42:39.131Z,8.7
2023-04-03T12:47:45.754Z,6.6
2023-04-03T12:52:52.247Z,6.2
2023-04-03T12:57:58.787Z,5.9
2023-04-03T13:03:05.269Z,5.9
2023-04-03T13:08:11.235Z,5.7
2023-04-03T13:13:17.717Z,5.8
2023-04-03T13:18:24.212Z,6.1
2023-04-03T13:23:30.884Z,7.9
2023-04-03T13:28:37.456Z,7.1
2023-04-03T13:33:44.075Z,7
2023-04-03T13:38:50.486Z,6.3
2023-04-03T13:43:57.162Z,5.7
2023-04-03T13:49:03.751Z,5.7
2023-04-03T13:54:10.270Z,5.5
2023-04-03T13:59:16.882Z,5.7
2023-04-03T14:04:23.498Z,6
2023-04-03T14:09:29.989Z,6.5
2023-04-03T14:14:35.976Z,6
2023-04-03T14:19:42.399Z,5.4
2023-04-03T14:24:49.037Z,5.1
2023-04-03T14:29:55.574Z,5
2023-04-03T14:35:02.146Z,5
2023-04-03T14:40:08.667Z,4.9
2023-04-03T14:45:15.288Z,5.2
2023-04-03T14:50:21.704Z,5.2
2023-04-03T14:55:28.450Z,5
2023-04-03T15:00:34.993Z,4.9
2023-04-03T15:05:41.425Z,4.9
2023-04-03T15:10:48.165Z,5
2023-04-03T15:15:54.738Z,4.7
2023-04-03T15:26:07.156Z,4.8
2023-04-03T15:31:13.548Z,4.7
2023-04-03T15:36:20.139Z,6.1
2023-04-03T15:41:26.872Z,4.6
2023-04-03T15:46:33.433Z,4.2
2023-04-03T15:51:40.015Z,4.1
2023-04-03T15:56:46.580Z,3.9
2023-04-03T16:01:52.970Z,3.9
2023-04-03T16:06:59.741Z,3.9
2023-04-03T16:12:06.292Z,3.9
2023-04-03T16:17:12.703Z,3.6
2023-04-03T16:22:19.261Z,3.5
2023-04-03T16:27:25.256Z,3.5
2023-04-03T16:32:31.741Z,3.4
2023-04-03T16:37:38.337Z,3.5
2023-04-03T17:49:10.264Z,2.6
2023-04-03T17:54:16.156Z,2.5
2023-04-03T17:59:21.977Z,2.5
2023-04-03T18:04:28.556Z,2.4
2023-04-03T18:09:35.302Z,2.4
2023-04-03T18:14:41.707Z,2.4
2023-04-03T18:19:48.458Z,2.3
2023-04-03T18:30:01.576Z,2.3
2023-04-03T18:35:08.147Z,2.3
2023-04-03T18:40:14.750Z,2.3
2023-04-03T18:45:21.289Z,2.3
2023-04-03T18:50:27.845Z,2.2
2023-04-03T18:55:34.281Z,2.1
2023-04-03T19:00:41.003Z,2.1
2023-04-03T19:05:46.847Z,2
2023-04-03T19:10:53.437Z,1.7
2023-04-03T19:15:59.921Z,1.5
2023-04-03T19:21:06.560Z,1.1
2023-04-03T19:26:13.135Z,0.9
2023-04-03T19:31:19.737Z,0.9
2023-04-03T19:36:26.278Z,0.8
2023-04-03T19:41:32.820Z,0.9
2023-04-03T19:46:38.752Z,1
2023-04-03T19:51:44.471Z,1.1
2023-04-03T19:56:51.007Z,1.2
2023-04-03T20:01:57.583Z,1.3
2023-04-03T20:07:04.141Z,1.4
2023-04-03T20:12:10.873Z,1.3
2023-04-03T20:17:17.295Z,1.3
2023-04-03T20:22:23.874Z,1.3
2023-04-03T20:27:30.484Z,1.3
2023-04-03T20:32:37.021Z,1.4
2023-04-03T20:37:43.732Z,1.4
2023-04-03T20:42:50.324Z,1.4
2023-04-03T20:47:56.202Z,1.4
2023-04-03T20:53:02.807Z,1.4
2023-04-03T20:58:09.350Z,1.4
2023-04-03T21:03:15.220Z,1.4
2023-04-03T21:08:21.613Z,1.4
2023-04-03T21:13:28.388Z,1.3
2023-04-03T21:18:34.972Z,1.4
2023-04-03T21:23:41.533Z,1.4
2023-04-03T21:28:48.115Z,1.3
2023-04-03T21:33:54.672Z,1.3
2023-04-03T21:39:01.092Z,1.2
2023-04-03T21:44:07.815Z,1.1
2023-04-03T21:49:14.365Z,1
2023-04-03T21:54:20.966Z,0.9
2023-04-03T21:59:27.546Z,0.8
2023-04-03T22:04:33.960Z,0.7
2023-04-03T22:09:39.797Z,0.7
2023-04-03T22:14:46.556Z,0.7
2023-04-03T22:19:52.957Z,0.7
2023-04-03T22:24:59.529Z,0.7
2023-04-03T22:30:06.286Z,0.6
2023-04-03T22:35:12.730Z,0.6
2023-04-03T22:40:19.301Z,0.6
2023-04-03T22:45:25.970Z,0.5
2023-04-03T22:50:32.660Z,0.5
2023-04-03T22:55:38.977Z,0.5
2023-04-03T23:00:45.630Z,0.4
2023-04-03T23:05:52.133Z,0.4
2023-04-03T23:10:58.709Z,0.3
2023-04-03T23:16:04.584Z,0.2
2023-04-03T23:21:11.220Z,0.1
2023-04-03T23:26:17.737Z,0
2023-04-03T23:31:24.391Z,0
2023-04-03T23:36:30.842Z,0
2023-04-03T23:41:37.449Z,0
2023-04-03T23:46:44.133Z,0
2023-04-03T23:51:50.783Z,0
2023-04-03T23:56:57.285Z,-0.1
